sensor_id;sensor_type;location;lat;lon;timestamp;P1;durP1;ratioP1;P2;durP2;ratioP2
69419;SDS011;71621;52.030;113.516;2024-02-15T00:00:13;50.67;;;17.02;;
69419;SDS011;71621;52.030;113.516;2024-02-15T00:03:19;54.72;;;21.17;;
69419;SDS011;71621;52.030;113.516;2024-02-15T00:06:24;90.97;;;28.03;;
69419;SDS011;71621;52.030;113.516;2024-02-15T00:09:27;115.82;;;38.30;;
69419;SDS011;71621;52.030;113.516;2024-02-15T00:12:31;71.63;;;26.08;;
69419;SDS011;71621;52.030;113.516;2024-02-15T00:15:35;53.65;;;19.60;;
69419;SDS011;71621;52.030;113.516;2024-02-15T00:18:39;48.58;;;20.95;;
69419;SDS011;71621;52.030;113.516;2024-02-15T00:21:43;71.18;;;25.30;;
69419;SDS011;71621;52.030;113.516;2024-02-15T00:24:47;73.70;;;25.60;;
69419;SDS011;71621;52.030;113.516;2024-02-15T00:27:53;40.97;;;19.73;;
69419;SDS011;71621;52.030;113.516;2024-02-15T00:30:57;31.52;;;13.60;;
69419;SDS011;71621;52.030;113.516;2024-02-15T00:34:01;29.63;;;12.15;;
69419;SDS011;71621;52.030;113.516;2024-02-15T00:37:09;35.07;;;15.37;;
69419;SDS011;71621;52.030;113.516;2024-02-15T00:40:12;53.00;;;16.33;;
69419;SDS011;71621;52.030;113.516;2024-02-15T00:43:16;38.40;;;12.85;;
69419;SDS011;71621;52.030;113.516;2024-02-15T00:46:19;41.88;;;13.85;;
69419;SDS011;71621;52.030;113.516;2024-02-15T00:49:23;24.25;;;8.70;;
69419;SDS011;71621;52.030;113.516;2024-02-15T00:52:30;15.13;;;6.88;;
69419;SDS011;71621;52.030;113.516;2024-02-15T00:55:34;21.05;;;6.50;;
69419;SDS011;71621;52.030;113.516;2024-02-15T00:58:38;27.63;;;9.17;;
69419;SDS011;71621;52.030;113.516;2024-02-15T01:01:41;21.45;;;8.85;;
69419;SDS011;71621;52.030;113.516;2024-02-15T01:04:45;17.52;;;8.40;;
69419;SDS011;71621;52.030;113.516;2024-02-15T01:07:49;30.50;;;10.52;;
69419;SDS011;71621;52.030;113.516;2024-02-15T01:10:52;18.42;;;9.55;;
69419;SDS011;71621;52.030;113.516;2024-02-15T01:13:57;32.38;;;12.10;;
69419;SDS011;71621;52.030;113.516;2024-02-15T01:17:01;36.63;;;10.75;;
69419;SDS011;71621;52.030;113.516;2024-02-15T01:20:05;37.97;;;12.60;;
69419;SDS011;71621;52.030;113.516;2024-02-15T01:23:10;37.63;;;16.50;;
69419;SDS011;71621;52.030;113.516;2024-02-15T01:26:13;58.75;;;19.35;;
69419;SDS011;71621;52.030;113.516;2024-02-15T01:29:17;66.13;;;22.80;;
69419;SDS011;71621;52.030;113.516;2024-02-15T01:32:21;53.08;;;22.00;;
69419;SDS011;71621;52.030;113.516;2024-02-15T01:35:25;68.75;;;23.88;;
69419;SDS011;71621;52.030;113.516;2024-02-15T01:38:30;72.80;;;23.45;;
69419;SDS011;71621;52.030;113.516;2024-02-15T01:41:34;75.20;;;22.10;;
69419;SDS011;71621;52.030;113.516;2024-02-15T01:44:38;74.68;;;22.90;;
69419;SDS011;71621;52.030;113.516;2024-02-15T01:47:42;72.43;;;21.33;;
69419;SDS011;71621;52.030;113.516;2024-02-15T01:50:46;59.80;;;19.70;;
69419;SDS011;71621;52.030;113.516;2024-02-15T01:53:51;50.50;;;18.52;;
69419;SDS011;71621;52.030;113.516;2024-02-15T01:56:57;35.42;;;13.40;;
69419;SDS011;71621;52.030;113.516;2024-02-15T02:00:01;71.87;;;16.20;;
69419;SDS011;71621;52.030;113.516;2024-02-15T02:03:09;48.28;;;13.20;;
69419;SDS011;71621;52.030;113.516;2024-02-15T02:06:15;30.10;;;12.20;;
69419;SDS011;71621;52.030;113.516;2024-02-15T02:09:21;26.35;;;9.98;;
69419;SDS011;71621;52.030;113.516;2024-02-15T02:12:25;33.05;;;11.43;;
69419;SDS011;71621;52.030;113.516;2024-02-15T02:15:31;36.58;;;13.07;;
69419;SDS011;71621;52.030;113.516;2024-02-15T02:18:36;43.67;;;15.75;;
69419;SDS011;71621;52.030;113.516;2024-02-15T02:21:40;33.03;;;10.70;;
69419;SDS011;71621;52.030;113.516;2024-02-15T02:24:55;40.38;;;13.10;;
69419;SDS011;71621;52.030;113.516;2024-02-15T02:28:03;40.35;;;14.38;;
69419;SDS011;71621;52.030;113.516;2024-02-15T02:31:08;52.13;;;14.10;;
69419;SDS011;71621;52.030;113.516;2024-02-15T02:34:14;33.85;;;14.73;;
69419;SDS011;71621;52.030;113.516;2024-02-15T02:37:18;28.50;;;11.68;;
69419;SDS011;71621;52.030;113.516;2024-02-15T02:40:21;26.40;;;11.13;;
69419;SDS011;71621;52.030;113.516;2024-02-15T02:43:25;22.55;;;8.95;;
69419;SDS011;71621;52.030;113.516;2024-02-15T02:46:29;28.65;;;9.30;;
69419;SDS011;71621;52.030;113.516;2024-02-15T02:49:35;29.10;;;9.68;;
69419;SDS011;71621;52.030;113.516;2024-02-15T02:52:39;42.63;;;10.77;;
69419;SDS011;71621;52.030;113.516;2024-02-15T02:55:45;27.83;;;10.00;;
69419;SDS011;71621;52.030;113.516;2024-02-15T02:58:48;35.10;;;11.43;;
69419;SDS011;71621;52.030;113.516;2024-02-15T03:01:52;34.23;;;11.50;;
69419;SDS011;71621;52.030;113.516;2024-02-15T03:04:59;42.13;;;10.15;;
69419;SDS011;71621;52.030;113.516;2024-02-15T03:08:06;33.63;;;9.10;;
69419;SDS011;71621;52.030;113.516;2024-02-15T03:11:11;26.38;;;7.85;;
69419;SDS011;71621;52.030;113.516;2024-02-15T03:14:15;37.53;;;12.88;;
69419;SDS011;71621;52.030;113.516;2024-02-15T03:17:18;28.45;;;10.00;;
69419;SDS011;71621;52.030;113.516;2024-02-15T03:20:22;43.55;;;12.35;;
69419;SDS011;71621;52.030;113.516;2024-02-15T03:23:29;31.37;;;13.03;;
69419;SDS011;71621;52.030;113.516;2024-02-15T03:26:33;32.40;;;13.43;;
69419;SDS011;71621;52.030;113.516;2024-02-15T03:29:40;48.85;;;15.10;;
69419;SDS011;71621;52.030;113.516;2024-02-15T03:32:45;57.03;;;17.83;;
69419;SDS011;71621;52.030;113.516;2024-02-15T03:35:51;55.10;;;18.85;;
69419;SDS011;71621;52.030;113.516;2024-02-15T03:38:55;68.38;;;23.08;;
69419;SDS011;71621;52.030;113.516;2024-02-15T03:41:58;64.68;;;23.02;;
69419;SDS011;71621;52.030;113.516;2024-02-15T03:45:03;77.18;;;24.50;;
69419;SDS011;71621;52.030;113.516;2024-02-15T03:48:11;71.85;;;25.70;;
69419;SDS011;71621;52.030;113.516;2024-02-15T03:51:18;68.15;;;22.75;;
69419;SDS011;71621;52.030;113.516;2024-02-15T03:54:23;68.97;;;24.73;;
69419;SDS011;71621;52.030;113.516;2024-02-15T03:57:27;84.05;;;25.67;;
69419;SDS011;71621;52.030;113.516;2024-02-15T04:00:31;76.68;;;26.33;;
69419;SDS011;71621;52.030;113.516;2024-02-15T04:03:34;78.40;;;24.90;;
69419;SDS011;71621;52.030;113.516;2024-02-15T04:06:39;75.20;;;26.27;;
69419;SDS011;71621;52.030;113.516;2024-02-15T04:09:47;92.18;;;31.48;;
69419;SDS011;71621;52.030;113.516;2024-02-15T04:12:51;100.30;;;31.33;;
69419;SDS011;71621;52.030;113.516;2024-02-15T04:15:54;103.40;;;35.40;;
69419;SDS011;71621;52.030;113.516;2024-02-15T04:19:00;117.00;;;39.53;;
69419;SDS011;71621;52.030;113.516;2024-02-15T04:22:04;111.20;;;33.58;;
69419;SDS011;71621;52.030;113.516;2024-02-15T04:25:10;106.67;;;35.27;;
69419;SDS011;71621;52.030;113.516;2024-02-15T04:28:20;109.30;;;34.55;;
69419;SDS011;71621;52.030;113.516;2024-02-15T04:31:24;105.40;;;32.80;;
69419;SDS011;71621;52.030;113.516;2024-02-15T04:34:30;94.57;;;30.83;;
69419;SDS011;71621;52.030;113.516;2024-02-15T04:37:36;100.43;;;32.50;;
69419;SDS011;71621;52.030;113.516;2024-02-15T04:40:40;92.13;;;27.05;;
69419;SDS011;71621;52.030;113.516;2024-02-15T04:43:48;104.72;;;30.65;;
69419;SDS011;71621;52.030;113.516;2024-02-15T04:46:52;89.97;;;28.77;;
69419;SDS011;71621;52.030;113.516;2024-02-15T04:49:56;86.75;;;29.63;;
69419;SDS011;71621;52.030;113.516;2024-02-15T04:52:59;96.90;;;32.58;;
69419;SDS011;71621;52.030;113.516;2024-02-15T04:56:03;88.23;;;30.70;;
69419;SDS011;71621;52.030;113.516;2024-02-15T04:59:13;100.97;;;31.60;;
69419;SDS011;71621;52.030;113.516;2024-02-15T05:02:18;129.48;;;35.67;;
69419;SDS011;71621;52.030;113.516;2024-02-15T05:05:22;113.77;;;35.63;;
69419;SDS011;71621;52.030;113.516;2024-02-15T05:08:27;122.97;;;36.00;;
69419;SDS011;71621;52.030;113.516;2024-02-15T05:11:34;97.53;;;34.90;;
69419;SDS011;71621;52.030;113.516;2024-02-15T05:14:39;84.95;;;29.27;;
69419;SDS011;71621;52.030;113.516;2024-02-15T05:17:42;100.07;;;29.98;;
69419;SDS011;71621;52.030;113.516;2024-02-15T05:20:47;32.95;;;10.38;;
69419;SDS011;71621;52.030;113.516;2024-02-15T05:23:51;58.50;;;18.00;;
69419;SDS011;71621;52.030;113.516;2024-02-15T05:26:56;20.20;;;6.13;;
69419;SDS011;71621;52.030;113.516;2024-02-15T05:29:59;18.52;;;6.95;;
69419;SDS011;71621;52.030;113.516;2024-02-15T05:33:03;16.25;;;3.95;;
69419;SDS011;71621;52.030;113.516;2024-02-15T05:36:07;14.67;;;3.93;;
69419;SDS011;71621;52.030;113.516;2024-02-15T05:39:11;15.30;;;3.78;;
69419;SDS011;71621;52.030;113.516;2024-02-15T05:42:17;14.82;;;3.63;;
69419;SDS011;71621;52.030;113.516;2024-02-15T05:48:29;17.60;;;4.18;;
69419;SDS011;71621;52.030;113.516;2024-02-15T05:51:33;16.60;;;4.60;;
69419;SDS011;71621;52.030;113.516;2024-02-15T05:54:37;13.45;;;3.90;;
69419;SDS011;71621;52.030;113.516;2024-02-15T05:57:44;15.20;;;4.60;;
69419;SDS011;71621;52.030;113.516;2024-02-15T06:00:48;13.20;;;4.32;;
69419;SDS011;71621;52.030;113.516;2024-02-15T06:03:52;21.83;;;5.57;;
69419;SDS011;71621;52.030;113.516;2024-02-15T06:06:58;20.53;;;5.97;;
69419;SDS011;71621;52.030;113.516;2024-02-15T06:10:03;16.05;;;4.30;;
69419;SDS011;71621;52.030;113.516;2024-02-15T06:13:10;16.30;;;5.45;;
69419;SDS011;71621;52.030;113.516;2024-02-15T06:16:13;18.45;;;5.88;;
69419;SDS011;71621;52.030;113.516;2024-02-15T06:19:17;23.73;;;7.78;;
69419;SDS011;71621;52.030;113.516;2024-02-15T06:22:21;30.85;;;8.60;;
69419;SDS011;71621;52.030;113.516;2024-02-15T06:25:25;19.25;;;5.85;;
69419;SDS011;71621;52.030;113.516;2024-02-15T06:28:29;26.70;;;6.30;;
69419;SDS011;71621;52.030;113.516;2024-02-15T06:31:52;17.58;;;6.00;;
69419;SDS011;71621;52.030;113.516;2024-02-15T06:35:15;16.55;;;5.13;;
69419;SDS011;71621;52.030;113.516;2024-02-15T06:38:37;23.88;;;5.07;;
69419;SDS011;71621;52.030;113.516;2024-02-15T06:42:00;27.42;;;5.88;;
69419;SDS011;71621;52.030;113.516;2024-02-15T06:45:05;19.63;;;4.88;;
69419;SDS011;71621;52.030;113.516;2024-02-15T06:48:10;21.38;;;5.40;;
69419;SDS011;71621;52.030;113.516;2024-02-15T06:51:13;15.70;;;4.97;;
69419;SDS011;71621;52.030;113.516;2024-02-15T06:54:18;15.00;;;5.97;;
69419;SDS011;71621;52.030;113.516;2024-02-15T06:57:22;16.75;;;6.68;;
69419;SDS011;71621;52.030;113.516;2024-02-15T07:00:25;21.67;;;5.90;;
69419;SDS011;71621;52.030;113.516;2024-02-15T07:03:29;30.00;;;9.23;;
69419;SDS011;71621;52.030;113.516;2024-02-15T07:06:35;13.10;;;3.38;;
69419;SDS011;71621;52.030;113.516;2024-02-15T07:09:42;12.38;;;3.53;;
69419;SDS011;71621;52.030;113.516;2024-02-15T07:12:45;12.00;;;3.80;;
69419;SDS011;71621;52.030;113.516;2024-02-15T07:15:50;21.45;;;6.15;;
69419;SDS011;71621;52.030;113.516;2024-02-15T07:18:54;10.43;;;3.53;;
69419;SDS011;71621;52.030;113.516;2024-02-15T07:21:58;9.00;;;2.80;;
69419;SDS011;71621;52.030;113.516;2024-02-15T07:25:02;11.07;;;3.00;;
69419;SDS011;71621;52.030;113.516;2024-02-15T07:28:07;11.45;;;3.83;;
69419;SDS011;71621;52.030;113.516;2024-02-15T07:31:11;12.90;;;3.38;;
69419;SDS011;71621;52.030;113.516;2024-02-15T07:34:15;12.93;;;5.75;;
69419;SDS011;71621;52.030;113.516;2024-02-15T07:37:19;11.80;;;2.90;;
69419;SDS011;71621;52.030;113.516;2024-02-15T07:40:25;14.57;;;5.68;;
69419;SDS011;71621;52.030;113.516;2024-02-15T07:43:31;15.77;;;4.13;;
69419;SDS011;71621;52.030;113.516;2024-02-15T07:46:36;13.95;;;3.75;;
69419;SDS011;71621;52.030;113.516;2024-02-15T07:49:41;16.47;;;5.53;;
69419;SDS011;71621;52.030;113.516;2024-02-15T07:52:46;20.48;;;6.85;;
69419;SDS011;71621;52.030;113.516;2024-02-15T07:55:50;17.67;;;5.78;;
69419;SDS011;71621;52.030;113.516;2024-02-15T07:58:54;15.18;;;5.22;;
69419;SDS011;71621;52.030;113.516;2024-02-15T08:01:58;18.47;;;6.37;;
69419;SDS011;71621;52.030;113.516;2024-02-15T08:05:02;13.80;;;4.88;;
69419;SDS011;71621;52.030;113.516;2024-02-15T08:08:08;15.93;;;4.93;;
69419;SDS011;71621;52.030;113.516;2024-02-15T08:11:12;14.55;;;3.80;;
69419;SDS011;71621;52.030;113.516;2024-02-15T08:14:19;13.98;;;4.30;;
69419;SDS011;71621;52.030;113.516;2024-02-15T08:17:23;13.45;;;4.32;;
69419;SDS011;71621;52.030;113.516;2024-02-15T08:20:29;17.35;;;4.10;;
69419;SDS011;71621;52.030;113.516;2024-02-15T08:23:34;18.10;;;5.00;;
69419;SDS011;71621;52.030;113.516;2024-02-15T08:26:38;14.60;;;4.28;;
69419;SDS011;71621;52.030;113.516;2024-02-15T08:29:43;12.15;;;4.13;;
69419;SDS011;71621;52.030;113.516;2024-02-15T08:32:47;17.75;;;5.05;;
69419;SDS011;71621;52.030;113.516;2024-02-15T08:35:51;18.97;;;5.67;;
69419;SDS011;71621;52.030;113.516;2024-02-15T08:38:58;15.52;;;4.32;;
69419;SDS011;71621;52.030;113.516;2024-02-15T08:42:02;16.40;;;4.75;;
69419;SDS011;71621;52.030;113.516;2024-02-15T08:45:07;14.17;;;4.17;;
69419;SDS011;71621;52.030;113.516;2024-02-15T08:48:12;12.60;;;5.07;;
69419;SDS011;71621;52.030;113.516;2024-02-15T08:51:16;20.98;;;5.20;;
69419;SDS011;71621;52.030;113.516;2024-02-15T08:54:23;16.08;;;4.25;;
69419;SDS011;71621;52.030;113.516;2024-02-15T08:57:29;15.50;;;4.63;;
69419;SDS011;71621;52.030;113.516;2024-02-15T09:00:34;18.65;;;4.82;;
69419;SDS011;71621;52.030;113.516;2024-02-15T09:03:38;18.80;;;6.43;;
69419;SDS011;71621;52.030;113.516;2024-02-15T09:06:42;17.63;;;5.40;;
69419;SDS011;71621;52.030;113.516;2024-02-15T09:09:46;13.95;;;4.32;;
69419;SDS011;71621;52.030;113.516;2024-02-15T09:12:50;15.48;;;4.32;;
69419;SDS011;71621;52.030;113.516;2024-02-15T09:15:54;15.85;;;5.35;;
69419;SDS011;71621;52.030;113.516;2024-02-15T09:18:57;18.20;;;4.33;;
69419;SDS011;71621;52.030;113.516;2024-02-15T09:22:04;14.52;;;4.50;;
69419;SDS011;71621;52.030;113.516;2024-02-15T09:25:08;14.93;;;4.72;;
69419;SDS011;71621;52.030;113.516;2024-02-15T09:28:13;17.88;;;4.95;;
69419;SDS011;71621;52.030;113.516;2024-02-15T09:31:16;12.98;;;4.22;;
69419;SDS011;71621;52.030;113.516;2024-02-15T09:34:20;13.80;;;4.15;;
69419;SDS011;71621;52.030;113.516;2024-02-15T09:37:24;15.27;;;3.38;;
69419;SDS011;71621;52.030;113.516;2024-02-15T09:40:29;13.13;;;3.30;;
69419;SDS011;71621;52.030;113.516;2024-02-15T09:43:34;9.38;;;3.42;;
69419;SDS011;71621;52.030;113.516;2024-02-15T09:46:43;10.95;;;3.42;;
69419;SDS011;71621;52.030;113.516;2024-02-15T09:49:48;11.30;;;4.80;;
69419;SDS011;71621;52.030;113.516;2024-02-15T09:52:52;8.03;;;2.90;;
69419;SDS011;71621;52.030;113.516;2024-02-15T09:56:01;7.20;;;2.42;;
69419;SDS011;71621;52.030;113.516;2024-02-15T09:59:07;6.90;;;1.98;;
69419;SDS011;71621;52.030;113.516;2024-02-15T10:02:10;13.38;;;2.38;;
69419;SDS011;71621;52.030;113.516;2024-02-15T10:05:17;14.13;;;2.70;;
69419;SDS011;71621;52.030;113.516;2024-02-15T10:08:21;9.75;;;2.30;;
69419;SDS011;71621;52.030;113.516;2024-02-15T10:11:26;10.40;;;3.13;;
69419;SDS011;71621;52.030;113.516;2024-02-15T10:14:31;14.33;;;4.07;;
69419;SDS011;71621;52.030;113.516;2024-02-15T10:17:35;12.07;;;3.83;;
69419;SDS011;71621;52.030;113.516;2024-02-15T10:20:39;12.73;;;3.50;;
69419;SDS011;71621;52.030;113.516;2024-02-15T10:23:47;11.43;;;3.67;;
69419;SDS011;71621;52.030;113.516;2024-02-15T10:27:08;19.73;;;3.97;;
69419;SDS011;71621;52.030;113.516;2024-02-15T10:30:16;14.35;;;3.78;;
69419;SDS011;71621;52.030;113.516;2024-02-15T10:33:26;14.02;;;3.75;;
69419;SDS011;71621;52.030;113.516;2024-02-15T10:36:34;15.60;;;3.60;;
69419;SDS011;71621;52.030;113.516;2024-02-15T10:39:37;13.27;;;3.55;;
69419;SDS011;71621;52.030;113.516;2024-02-15T10:42:43;13.82;;;3.65;;
69419;SDS011;71621;52.030;113.516;2024-02-15T10:45:48;9.47;;;3.23;;
69419;SDS011;71621;52.030;113.516;2024-02-15T10:48:55;12.25;;;4.90;;
69419;SDS011;71621;52.030;113.516;2024-02-15T10:52:00;17.58;;;3.70;;
69419;SDS011;71621;52.030;113.516;2024-02-15T10:55:08;16.20;;;3.30;;
69419;SDS011;71621;52.030;113.516;2024-02-15T10:58:16;16.40;;;3.90;;
69419;SDS011;71621;52.030;113.516;2024-02-15T11:01:26;12.15;;;3.67;;
69419;SDS011;71621;52.030;113.516;2024-02-15T11:04:32;11.63;;;3.65;;
69419;SDS011;71621;52.030;113.516;2024-02-15T11:07:38;12.07;;;3.93;;
69419;SDS011;71621;52.030;113.516;2024-02-15T11:10:42;14.05;;;2.85;;
69419;SDS011;71621;52.030;113.516;2024-02-15T11:13:47;9.50;;;3.13;;
69419;SDS011;71621;52.030;113.516;2024-02-15T11:16:51;12.27;;;3.13;;
69419;SDS011;71621;52.030;113.516;2024-02-15T11:19:55;8.05;;;2.88;;
69419;SDS011;71621;52.030;113.516;2024-02-15T11:23:02;8.30;;;2.90;;
69419;SDS011;71621;52.030;113.516;2024-02-15T11:33:01;12.18;;;3.05;;
69419;SDS011;71621;52.030;113.516;2024-02-15T11:36:34;9.93;;;2.55;;
69419;SDS011;71621;52.030;113.516;2024-02-15T11:39:41;9.33;;;3.27;;
69419;SDS011;71621;52.030;113.516;2024-02-15T11:42:45;8.52;;;2.85;;
69419;SDS011;71621;52.030;113.516;2024-02-15T11:45:57;8.43;;;3.13;;
69419;SDS011;71621;52.030;113.516;2024-02-15T11:49:14;11.90;;;2.72;;
69419;SDS011;71621;52.030;113.516;2024-02-15T11:52:23;8.85;;;2.65;;
69419;SDS011;71621;52.030;113.516;2024-02-15T11:55:26;15.88;;;2.85;;
69419;SDS011;71621;52.030;113.516;2024-02-15T11:58:31;11.43;;;3.60;;
69419;SDS011;71621;52.030;113.516;2024-02-15T12:01:44;9.47;;;2.70;;
69419;SDS011;71621;52.030;113.516;2024-02-15T12:05:06;18.00;;;5.43;;
69419;SDS011;71621;52.030;113.516;2024-02-15T12:08:29;8.88;;;2.80;;
69419;SDS011;71621;52.030;113.516;2024-02-15T12:11:57;8.50;;;2.55;;
69419;SDS011;71621;52.030;113.516;2024-02-15T12:15:19;6.93;;;1.85;;
69419;SDS011;71621;52.030;113.516;2024-02-15T12:18:42;14.55;;;2.78;;
69419;SDS011;71621;52.030;113.516;2024-02-15T12:21:47;12.20;;;2.70;;
69419;SDS011;71621;52.030;113.516;2024-02-15T12:24:58;7.87;;;2.27;;
69419;SDS011;71621;52.030;113.516;2024-02-15T12:28:03;9.73;;;2.50;;
69419;SDS011;71621;52.030;113.516;2024-02-15T12:31:08;10.27;;;2.33;;
69419;SDS011;71621;52.030;113.516;2024-02-15T12:34:16;13.60;;;2.53;;
69419;SDS011;71621;52.030;113.516;2024-02-15T12:37:23;9.93;;;2.33;;
69419;SDS011;71621;52.030;113.516;2024-02-15T12:40:30;17.50;;;3.78;;
69419;SDS011;71621;52.030;113.516;2024-02-15T12:43:34;8.75;;;2.60;;
69419;SDS011;71621;52.030;113.516;2024-02-15T12:46:39;10.32;;;2.72;;
69419;SDS011;71621;52.030;113.516;2024-02-15T12:49:43;10.15;;;2.70;;
69419;SDS011;71621;52.030;113.516;2024-02-15T12:52:47;8.38;;;2.67;;
69419;SDS011;71621;52.030;113.516;2024-02-15T12:55:52;8.23;;;2.57;;
69419;SDS011;71621;52.030;113.516;2024-02-15T12:59:00;9.18;;;2.60;;
69419;SDS011;71621;52.030;113.516;2024-02-15T13:02:05;7.15;;;2.33;;
69419;SDS011;71621;52.030;113.516;2024-02-15T13:05:09;11.77;;;2.87;;
69419;SDS011;71621;52.030;113.516;2024-02-15T13:08:12;7.90;;;2.60;;
69419;SDS011;71621;52.030;113.516;2024-02-15T13:11:20;8.85;;;2.10;;
69419;SDS011;71621;52.030;113.516;2024-02-15T13:14:24;12.35;;;2.03;;
69419;SDS011;71621;52.030;113.516;2024-02-15T13:17:32;8.63;;;2.30;;
69419;SDS011;71621;52.030;113.516;2024-02-15T13:20:36;12.45;;;3.33;;
69419;SDS011;71621;52.030;113.516;2024-02-15T13:23:41;15.63;;;3.03;;
69419;SDS011;71621;52.030;113.516;2024-02-15T13:26:45;12.50;;;2.50;;
69419;SDS011;71621;52.030;113.516;2024-02-15T13:29:50;9.00;;;2.35;;
69419;SDS011;71621;52.030;113.516;2024-02-15T13:32:53;12.55;;;4.55;;
69419;SDS011;71621;52.030;113.516;2024-02-15T13:35:58;14.70;;;2.77;;
69419;SDS011;71621;52.030;113.516;2024-02-15T13:39:02;11.35;;;2.63;;
69419;SDS011;71621;52.030;113.516;2024-02-15T13:42:08;13.95;;;2.72;;
69419;SDS011;71621;52.030;113.516;2024-02-15T13:45:11;6.03;;;1.92;;
69419;SDS011;71621;52.030;113.516;2024-02-15T13:48:17;8.57;;;2.65;;
69419;SDS011;71621;52.030;113.516;2024-02-15T13:51:20;16.08;;;3.35;;
69419;SDS011;71621;52.030;113.516;2024-02-15T13:54:24;8.68;;;2.80;;
69419;SDS011;71621;52.030;113.516;2024-02-15T13:57:27;12.67;;;3.53;;
69419;SDS011;71621;52.030;113.516;2024-02-15T14:00:32;12.15;;;3.80;;
69419;SDS011;71621;52.030;113.516;2024-02-15T14:03:40;16.25;;;5.40;;
69419;SDS011;71621;52.030;113.516;2024-02-15T14:06:44;14.60;;;4.37;;
69419;SDS011;71621;52.030;113.516;2024-02-15T14:09:48;12.95;;;4.60;;
69419;SDS011;71621;52.030;113.516;2024-02-15T14:13:04;23.52;;;3.95;;
69419;SDS011;71621;52.030;113.516;2024-02-15T14:16:08;16.33;;;4.75;;
69419;SDS011;71621;52.030;113.516;2024-02-15T14:19:12;17.77;;;4.90;;
69419;SDS011;71621;52.030;113.516;2024-02-15T14:22:15;19.98;;;3.92;;
69419;SDS011;71621;52.030;113.516;2024-02-15T14:25:20;11.20;;;3.22;;
69419;SDS011;71621;52.030;113.516;2024-02-15T14:28:28;10.97;;;3.37;;
69419;SDS011;71621;52.030;113.516;2024-02-15T14:31:34;7.82;;;2.83;;
69419;SDS011;71621;52.030;113.516;2024-02-15T14:34:56;11.93;;;2.58;;
69419;SDS011;71621;52.030;113.516;2024-02-15T14:38:04;16.00;;;1.90;;
69419;SDS011;71621;52.030;113.516;2024-02-15T14:41:13;4.93;;;1.92;;
69419;SDS011;71621;52.030;113.516;2024-02-15T14:44:32;7.30;;;1.65;;
69419;SDS011;71621;52.030;113.516;2024-02-15T14:47:37;6.97;;;1.65;;
69419;SDS011;71621;52.030;113.516;2024-02-15T14:50:42;4.53;;;1.30;;
69419;SDS011;71621;52.030;113.516;2024-02-15T14:53:46;7.80;;;1.63;;
69419;SDS011;71621;52.030;113.516;2024-02-15T14:56:51;7.07;;;2.03;;
69419;SDS011;71621;52.030;113.516;2024-02-15T14:59:56;4.10;;;1.57;;
69419;SDS011;71621;52.030;113.516;2024-02-15T15:03:01;6.63;;;1.98;;
69419;SDS011;71621;52.030;113.516;2024-02-15T15:06:06;11.30;;;1.75;;
69419;SDS011;71621;52.030;113.516;2024-02-15T15:09:43;10.37;;;2.50;;
69419;SDS011;71621;52.030;113.516;2024-02-15T15:13:19;9.85;;;2.28;;
69419;SDS011;71621;52.030;113.516;2024-02-15T15:16:23;8.88;;;1.85;;
69419;SDS011;71621;52.030;113.516;2024-02-15T15:19:28;7.18;;;2.28;;
69419;SDS011;71621;52.030;113.516;2024-02-15T15:22:32;9.20;;;2.20;;
69419;SDS011;71621;52.030;113.516;2024-02-15T15:25:38;8.20;;;2.17;;
69419;SDS011;71621;52.030;113.516;2024-02-15T15:28:44;9.77;;;2.40;;
69419;SDS011;71621;52.030;113.516;2024-02-15T15:31:47;12.83;;;2.40;;
69419;SDS011;71621;52.030;113.516;2024-02-15T15:34:51;8.50;;;2.33;;
69419;SDS011;71621;52.030;113.516;2024-02-15T15:37:57;5.65;;;1.83;;
69419;SDS011;71621;52.030;113.516;2024-02-15T15:41:02;10.07;;;2.17;;
69419;SDS011;71621;52.030;113.516;2024-02-15T15:44:06;6.22;;;1.45;;
69419;SDS011;71621;52.030;113.516;2024-02-15T15:47:09;5.78;;;1.80;;
69419;SDS011;71621;52.030;113.516;2024-02-15T15:50:13;6.13;;;1.60;;
69419;SDS011;71621;52.030;113.516;2024-02-15T15:53:18;6.32;;;1.80;;
69419;SDS011;71621;52.030;113.516;2024-02-15T15:56:22;6.45;;;1.73;;
69419;SDS011;71621;52.030;113.516;2024-02-15T15:59:28;12.00;;;2.60;;
69419;SDS011;71621;52.030;113.516;2024-02-15T16:02:32;6.67;;;1.70;;
69419;SDS011;71621;52.030;113.516;2024-02-15T16:05:35;6.80;;;2.10;;
69419;SDS011;71621;52.030;113.516;2024-02-15T16:08:40;13.77;;;2.47;;
69419;SDS011;71621;52.030;113.516;2024-02-15T16:11:44;8.93;;;2.57;;
69419;SDS011;71621;52.030;113.516;2024-02-15T16:14:49;7.97;;;1.92;;
69419;SDS011;71621;52.030;113.516;2024-02-15T16:17:53;9.48;;;2.05;;
69419;SDS011;71621;52.030;113.516;2024-02-15T16:20:57;6.75;;;1.90;;
69419;SDS011;71621;52.030;113.516;2024-02-15T16:24:01;13.77;;;2.17;;
69419;SDS011;71621;52.030;113.516;2024-02-15T16:27:06;7.05;;;1.98;;
69419;SDS011;71621;52.030;113.516;2024-02-15T16:30:09;6.13;;;2.08;;
69419;SDS011;71621;52.030;113.516;2024-02-15T16:33:14;6.17;;;1.90;;
69419;SDS011;71621;52.030;113.516;2024-02-15T16:36:18;9.38;;;3.22;;
69419;SDS011;71621;52.030;113.516;2024-02-15T16:39:25;13.02;;;5.05;;
69419;SDS011;71621;52.030;113.516;2024-02-15T16:42:29;18.57;;;5.60;;
69419;SDS011;71621;52.030;113.516;2024-02-15T16:45:35;18.15;;;5.18;;
69419;SDS011;71621;52.030;113.516;2024-02-15T16:48:41;11.23;;;3.92;;
69419;SDS011;71621;52.030;113.516;2024-02-15T16:51:46;13.10;;;3.60;;
69419;SDS011;71621;52.030;113.516;2024-02-15T16:54:50;9.65;;;2.63;;
69419;SDS011;71621;52.030;113.516;2024-02-15T16:57:53;8.13;;;1.90;;
69419;SDS011;71621;52.030;113.516;2024-02-15T17:01:03;9.82;;;1.52;;
69419;SDS011;71621;52.030;113.516;2024-02-15T17:04:07;5.13;;;1.83;;
69419;SDS011;71621;52.030;113.516;2024-02-15T17:07:12;5.35;;;1.42;;
69419;SDS011;71621;52.030;113.516;2024-02-15T17:10:15;4.53;;;1.45;;
69419;SDS011;71621;52.030;113.516;2024-02-15T17:13:19;4.43;;;1.37;;
69419;SDS011;71621;52.030;113.516;2024-02-15T17:16:24;6.68;;;1.80;;
69419;SDS011;71621;52.030;113.516;2024-02-15T17:19:29;4.25;;;1.33;;
69419;SDS011;71621;52.030;113.516;2024-02-15T17:22:33;6.72;;;1.30;;
69419;SDS011;71621;52.030;113.516;2024-02-15T17:25:36;5.97;;;1.88;;
69419;SDS011;71621;52.030;113.516;2024-02-15T17:28:40;7.70;;;2.47;;
69419;SDS011;71621;52.030;113.516;2024-02-15T17:31:44;6.35;;;2.35;;
69419;SDS011;71621;52.030;113.516;2024-02-15T17:34:51;6.67;;;1.87;;
69419;SDS011;71621;52.030;113.516;2024-02-15T17:37:55;4.53;;;1.73;;
69419;SDS011;71621;52.030;113.516;2024-02-15T17:41:00;7.50;;;1.88;;
69419;SDS011;71621;52.030;113.516;2024-02-15T17:44:03;9.13;;;2.13;;
69419;SDS011;71621;52.030;113.516;2024-02-15T17:47:07;6.53;;;2.20;;
69419;SDS011;71621;52.030;113.516;2024-02-15T17:50:11;8.15;;;1.92;;
69419;SDS011;71621;52.030;113.516;2024-02-15T17:53:20;6.07;;;1.30;;
69419;SDS011;71621;52.030;113.516;2024-02-15T17:56:24;15.43;;;1.83;;
69419;SDS011;71621;52.030;113.516;2024-02-15T17:59:28;6.85;;;1.90;;